createdAt,value
2023-04-15T00:01:19.341Z,29.70
2023-04-15T00:03:47.890Z,29.70
2023-04-15T00:06:15.185Z,29.40
2023-04-15T00:08:42.662Z,29.60
2023-04-15T00:11:09.788Z,29.90
2023-04-15T00:13:36.905Z,29.70
2023-04-15T00:16:04.319Z,30.00
2023-04-15T00:18:31.885Z,30.10
2023-04-15T00:20:59.772Z,30.20
2023-04-15T00:23:27.101Z,29.90
2023-04-15T00:25:54.359Z,30.50
2023-04-15T00:28:22.094Z,29.80
2023-04-15T00:30:49.134Z,30.10
2023-04-15T00:33:19.159Z,31.10
2023-04-15T00:35:46.203Z,31.40
2023-04-15T00:38:13.285Z,31.80
2023-04-15T00:40:41.438Z,31.40
2023-04-15T00:43:08.422Z,30.80
2023-04-15T00:45:35.383Z,31.10
2023-04-15T00:48:02.580Z,31.20
2023-04-15T00:50:29.597Z,31.60
2023-04-15T00:52:56.933Z,32.00
2023-04-15T00:55:24.030Z,31.40
2023-04-15T00:57:52.095Z,30.90
2023-04-15T01:00:20.331Z,30.70
2023-04-15T01:02:47.575Z,30.10
2023-04-15T01:05:17.415Z,30.10
2023-04-15T01:07:44.423Z,30.00
2023-04-15T01:10:11.613Z,30.90
2023-04-15T01:12:39.703Z,30.40
2023-04-15T01:15:08.159Z,30.10
2023-04-15T01:17:35.473Z,30.10
2023-04-15T01:20:02.958Z,30.20
2023-04-15T01:22:30.367Z,30.40
2023-04-15T01:25:10.702Z,29.70
2023-04-15T01:27:41.164Z,29.10
2023-04-15T01:30:09.401Z,28.70
2023-04-15T01:32:37.036Z,29.40
2023-04-15T01:35:04.287Z,29.50
2023-04-15T01:37:31.754Z,29.20
2023-04-15T01:39:58.746Z,29.30
2023-04-15T01:42:26.577Z,29.40
2023-04-15T01:44:53.930Z,29.10
2023-04-15T01:47:20.963Z,30.30
2023-04-15T01:49:48.202Z,30.80
2023-04-15T01:52:15.869Z,31.00
2023-04-15T01:54:42.992Z,30.60
2023-04-15T01:57:10.191Z,30.10
2023-04-15T01:59:37.496Z,30.30
2023-04-15T02:02:05.801Z,30.20
2023-04-15T02:04:32.855Z,30.90
2023-04-15T02:06:59.967Z,31.50
2023-04-15T02:09:27.080Z,32.10
2023-04-15T02:11:54.643Z,32.50
2023-04-15T02:14:21.775Z,32.30
2023-04-15T02:16:48.920Z,32.00
2023-04-15T02:19:16.497Z,32.50
2023-04-15T02:21:43.697Z,32.10
2023-04-15T02:24:12.301Z,32.40
2023-04-15T02:26:39.682Z,33.00
2023-04-15T02:29:06.981Z,32.30
2023-04-15T02:31:37.215Z,31.50
2023-04-15T02:34:04.784Z,31.70
2023-04-15T02:36:32.334Z,31.30
2023-04-15T02:38:59.611Z,31.10
2023-04-15T02:41:28.552Z,31.10
2023-04-15T02:43:55.756Z,31.20
2023-04-15T02:46:23.223Z,29.90
2023-04-15T02:48:50.727Z,29.80
2023-04-15T02:51:22.935Z,29.20
2023-04-15T02:53:52.560Z,29.20
2023-04-15T02:56:19.955Z,29.00
2023-04-15T02:58:47.201Z,29.20
2023-04-15T03:01:14.830Z,29.10
2023-04-15T03:03:42.119Z,29.60
2023-04-15T03:06:09.312Z,30.20
2023-04-15T03:08:36.599Z,30.70
2023-04-15T03:11:03.939Z,30.70
2023-04-15T03:13:31.379Z,31.20
2023-04-15T03:15:58.436Z,31.60
2023-04-15T03:18:25.537Z,31.70
2023-04-15T03:20:52.768Z,31.90
2023-04-15T03:23:19.989Z,31.90
2023-04-15T03:25:47.227Z,32.20
2023-04-15T03:28:14.250Z,32.90
2023-04-15T03:30:41.942Z,32.70
2023-04-15T03:33:09.219Z,33.30
2023-04-15T03:35:37.027Z,33.50
2023-04-15T03:38:05.143Z,33.30
2023-04-15T03:40:33.839Z,33.30
2023-04-15T03:43:01.176Z,33.50
2023-04-15T03:45:29.864Z,34.00
2023-04-15T03:48:03.586Z,33.90
2023-04-15T03:50:38.347Z,34.20
2023-04-15T03:53:05.712Z,33.70
2023-04-15T03:55:32.708Z,33.50
2023-04-15T03:57:59.755Z,33.20
2023-04-15T04:00:26.758Z,33.80
2023-04-15T04:02:53.987Z,33.80
2023-04-15T04:05:21.484Z,34.20
2023-04-15T04:07:48.601Z,34.10
2023-04-15T04:10:15.535Z,33.90
2023-04-15T04:12:43.016Z,33.50
2023-04-15T04:15:10.373Z,33.50
2023-04-15T04:17:37.506Z,33.90
2023-04-15T04:20:05.899Z,34.20
2023-04-15T04:22:40.938Z,34.50
2023-04-15T04:25:08.955Z,34.70
2023-04-15T04:27:36.467Z,34.70
2023-04-15T04:30:04.079Z,34.50
2023-04-15T04:32:31.576Z,34.40
2023-04-15T04:34:59.004Z,34.60
2023-04-15T04:37:26.101Z,34.50
2023-04-15T04:39:53.073Z,34.60
2023-04-15T04:42:20.122Z,34.50
2023-04-15T04:44:47.341Z,34.80
2023-04-15T04:47:14.581Z,34.10
2023-04-15T04:49:41.629Z,33.80
2023-04-15T04:52:09.036Z,33.50
2023-04-15T04:54:36.627Z,33.00
2023-04-15T04:57:03.792Z,32.70
2023-04-15T04:59:30.981Z,32.90
2023-04-15T05:01:58.101Z,33.10
2023-04-15T05:04:25.221Z,33.30
2023-04-15T05:06:52.428Z,33.70
2023-04-15T05:09:19.457Z,33.10
2023-04-15T05:11:46.576Z,32.90
2023-04-15T05:14:13.585Z,32.90
2023-04-15T05:16:40.723Z,33.10
2023-04-15T05:19:08.000Z,32.50
2023-04-15T05:21:35.346Z,31.80
2023-04-15T05:24:03.354Z,31.80
2023-04-15T05:26:30.337Z,31.80
2023-04-15T05:28:57.615Z,31.60
2023-04-15T05:31:24.986Z,31.50
2023-04-15T05:33:52.035Z,31.80
2023-04-15T05:36:19.118Z,31.50
2023-04-15T05:38:46.166Z,30.80
2023-04-15T05:41:19.544Z,31.00
2023-04-15T05:43:47.364Z,31.50
2023-04-15T05:46:14.402Z,32.00
2023-04-15T05:48:41.753Z,32.10
2023-04-15T05:51:08.801Z,32.30
2023-04-15T05:53:36.041Z,32.90
2023-04-15T05:56:03.234Z,32.10
2023-04-15T05:58:30.246Z,33.00
2023-04-15T06:00:57.503Z,33.20
2023-04-15T06:03:24.808Z,32.30
2023-04-15T06:05:52.148Z,32.80
2023-04-15T06:08:19.374Z,33.30
2023-04-15T06:10:46.400Z,33.30
2023-04-15T06:13:13.502Z,33.40
2023-04-15T06:15:40.498Z,32.70
2023-04-15T06:18:07.467Z,32.40
2023-04-15T06:20:35.407Z,32.80
2023-04-15T06:23:03.144Z,32.70
2023-04-15T06:25:30.209Z,32.10
2023-04-15T06:27:57.297Z,32.20
2023-04-15T06:30:24.543Z,32.30
2023-04-15T06:32:53.698Z,32.00
2023-04-15T06:35:21.801Z,31.70
2023-04-15T06:37:48.788Z,32.60
2023-04-15T06:40:15.963Z,32.30
2023-04-15T06:42:43.063Z,32.60
2023-04-15T06:45:10.602Z,31.00
2023-04-15T06:47:37.707Z,30.70
2023-04-15T06:50:05.215Z,31.20
2023-04-15T06:52:32.264Z,31.10
2023-04-15T06:54:59.799Z,31.90
2023-04-15T06:57:27.252Z,31.30
2023-04-15T06:59:54.796Z,32.30
2023-04-15T07:02:22.152Z,32.10
2023-04-15T07:04:49.358Z,31.50
2023-04-15T07:07:17.606Z,31.90
2023-04-15T07:09:45.072Z,31.50
2023-04-15T07:12:12.202Z,32.10
2023-04-15T07:14:39.220Z,32.80
2023-04-15T07:17:06.883Z,32.60
2023-04-15T07:19:34.268Z,32.60
2023-04-15T07:22:01.760Z,31.60
2023-04-15T07:24:28.782Z,31.60
2023-04-15T07:27:00.834Z,31.50
2023-04-15T07:29:28.378Z,31.70
2023-04-15T07:31:57.322Z,32.10
2023-04-15T07:34:24.709Z,31.50
2023-04-15T07:36:52.197Z,32.20
2023-04-15T07:39:19.563Z,31.50
2023-04-15T07:41:46.886Z,30.40
2023-04-15T07:44:13.995Z,31.30
2023-04-15T07:46:41.363Z,31.30
2023-04-15T07:49:08.726Z,30.60
2023-04-15T07:51:35.930Z,29.40
2023-04-15T07:54:03.348Z,28.70
2023-04-15T07:56:30.611Z,29.50
2023-04-15T07:59:07.077Z,28.80
2023-04-15T08:01:34.137Z,28.30
2023-04-15T08:04:01.668Z,28.30
2023-04-15T08:06:29.258Z,28.80
2023-04-15T08:08:56.415Z,29.10
2023-04-15T08:11:24.620Z,29.20
2023-04-15T08:13:52.725Z,29.00
2023-04-15T08:16:25.736Z,28.90
2023-04-15T08:18:54.094Z,29.40
2023-04-15T08:21:21.547Z,30.20
2023-04-15T08:23:50.639Z,30.00
2023-04-15T08:26:18.843Z,30.00
2023-04-15T08:28:46.831Z,30.00
2023-04-15T08:31:16.507Z,29.60
2023-04-15T08:33:44.070Z,29.10
2023-04-15T08:36:11.267Z,29.20
2023-04-15T08:38:38.325Z,29.30
2023-04-15T08:41:13.613Z,29.10
2023-04-15T08:43:53.101Z,29.90
2023-04-15T08:46:20.942Z,30.40
2023-04-15T08:48:49.629Z,30.00
2023-04-15T08:51:18.568Z,29.90
2023-04-15T08:53:48.131Z,30.00
2023-04-15T08:56:19.196Z,30.00
2023-04-15T08:58:46.665Z,30.10
2023-04-15T09:01:13.987Z,29.80
2023-04-15T09:03:42.179Z,29.80
2023-04-15T09:06:09.735Z,30.00
2023-04-15T09:08:36.957Z,29.70
2023-04-15T09:11:04.324Z,29.70
2023-04-15T09:13:31.786Z,29.20
2023-04-15T09:15:58.810Z,29.30
2023-04-15T09:18:34.826Z,29.20
2023-04-15T09:21:11.565Z,29.10
2023-04-15T09:23:40.669Z,28.90
2023-04-15T09:26:08.485Z,29.40
2023-04-15T09:28:43.291Z,29.60
2023-04-15T09:31:11.208Z,28.40
2023-04-15T09:33:57.422Z,29.20
2023-04-15T09:36:25.309Z,28.20
2023-04-15T09:38:57.451Z,29.30
2023-04-15T09:41:25.777Z,29.10
2023-04-15T09:43:53.152Z,28.90
2023-04-15T09:46:20.644Z,28.80
2023-04-15T09:49:07.073Z,30.10
2023-04-15T09:51:36.291Z,28.50
2023-04-15T09:54:04.319Z,30.50
2023-04-15T09:56:42.415Z,30.00
2023-04-15T09:59:09.698Z,30.50
2023-04-15T10:01:37.314Z,30.20
2023-04-15T10:04:06.361Z,29.50
2023-04-15T10:06:34.703Z,29.10
2023-04-15T10:09:02.376Z,29.00
2023-04-15T10:11:31.718Z,30.40
2023-04-15T10:14:00.595Z,29.70
2023-04-15T10:16:29.150Z,30.00
2023-04-15T10:18:59.066Z,30.40
2023-04-15T10:21:26.741Z,29.70
2023-04-15T10:23:54.177Z,30.90
2023-04-15T10:26:21.834Z,29.70
2023-04-15T10:28:49.171Z,29.10
2023-04-15T10:31:18.565Z,28.80
2023-04-15T10:33:47.632Z,28.80
2023-04-15T10:36:15.516Z,28.40
2023-04-15T10:38:45.870Z,28.70
2023-04-15T10:41:23.088Z,28.70
2023-04-15T10:44:01.724Z,29.20
2023-04-15T10:46:38.231Z,29.20
2023-04-15T10:49:25.759Z,29.50
2023-04-15T10:51:58.004Z,29.20
2023-04-15T10:54:25.125Z,28.80
2023-04-15T10:57:07.519Z,29.00
2023-04-15T10:59:59.773Z,29.70
2023-04-15T11:03:03.780Z,29.10
2023-04-15T11:05:42.893Z,28.60
2023-04-15T11:08:13.958Z,28.00
2023-04-15T11:10:41.116Z,28.30
2023-04-15T11:13:11.172Z,28.50
2023-04-15T11:15:45.412Z,29.90
2023-04-15T11:18:13.534Z,29.70
2023-04-15T11:20:47.356Z,29.10
2023-04-15T11:23:27.736Z,28.60
2023-04-15T11:26:00.204Z,28.70
2023-04-15T11:28:31.976Z,28.60
2023-04-15T11:31:06.127Z,28.10
2023-04-15T11:33:33.321Z,28.50
2023-04-15T11:36:01.262Z,29.10
2023-04-15T11:38:28.728Z,30.00
2023-04-15T11:40:55.815Z,29.60
2023-04-15T11:43:23.982Z,30.70
2023-04-15T11:45:59.087Z,31.60
2023-04-15T11:48:31.673Z,31.60
2023-04-15T11:51:09.188Z,31.40
2023-04-15T11:53:47.641Z,30.90
2023-04-15T11:56:22.856Z,29.90
2023-04-15T11:58:53.974Z,30.40
2023-04-15T12:01:20.874Z,30.30
2023-04-15T12:03:49.761Z,29.70
2023-04-15T12:06:21.444Z,29.70
2023-04-15T12:08:55.752Z,29.70
2023-04-15T12:11:35.207Z,29.60
2023-04-15T12:14:09.126Z,29.00
2023-04-15T12:16:47.824Z,29.30
2023-04-15T12:19:28.904Z,30.00
2023-04-15T12:22:01.590Z,31.30
2023-04-15T12:24:31.478Z,30.90
2023-04-15T12:27:02.144Z,30.60
2023-04-15T12:29:31.265Z,30.40
2023-04-15T12:32:12.524Z,30.90
2023-04-15T12:34:54.498Z,30.60
2023-04-15T12:37:21.830Z,30.10
2023-04-15T12:39:50.243Z,30.50
2023-04-15T12:42:18.777Z,31.00
2023-04-15T12:44:46.219Z,31.10
2023-04-15T12:47:13.560Z,30.50
2023-04-15T12:49:41.251Z,29.80
2023-04-15T12:52:08.806Z,29.70
2023-04-15T12:54:36.534Z,29.10
2023-04-15T12:57:06.959Z,29.40
2023-04-15T12:59:35.754Z,28.50
2023-04-15T13:02:03.394Z,28.40
2023-04-15T13:04:31.694Z,28.70
2023-04-15T13:07:04.492Z,29.10
2023-04-15T13:09:31.482Z,29.60
2023-04-15T13:11:58.635Z,30.30
2023-04-15T13:14:25.813Z,31.30
2023-04-15T13:16:54.904Z,31.20
2023-04-15T13:19:22.059Z,30.30
2023-04-15T13:21:49.169Z,30.20
2023-04-15T13:24:16.426Z,30.00
2023-04-15T13:26:44.912Z,30.00
2023-04-15T13:29:12.575Z,29.60
2023-04-15T13:31:39.569Z,28.90
2023-04-15T13:34:07.943Z,28.90
2023-04-15T13:36:35.169Z,29.60
2023-04-15T13:39:02.556Z,29.70
2023-04-15T13:41:29.751Z,29.80
2023-04-15T13:43:57.602Z,29.60
2023-04-15T13:46:25.869Z,29.70
2023-04-15T13:48:53.721Z,30.10
2023-04-15T13:51:20.915Z,30.30
2023-04-15T13:53:47.946Z,31.10
2023-04-15T13:56:14.997Z,30.30
2023-04-15T13:58:42.159Z,31.60
2023-04-15T14:01:09.945Z,31.50
2023-04-15T14:03:37.392Z,30.60
2023-04-15T14:06:08.358Z,30.40
2023-04-15T14:08:35.347Z,29.50
2023-04-15T14:11:02.335Z,29.50
2023-04-15T14:13:31.469Z,29.70
2023-04-15T14:15:58.484Z,29.70
2023-04-15T14:18:25.915Z,30.30
2023-04-15T14:20:53.013Z,30.30
2023-04-15T14:23:20.365Z,30.10
2023-04-15T14:25:48.285Z,29.40
2023-04-15T14:28:16.035Z,29.80
2023-04-15T14:30:43.198Z,29.50
2023-04-15T14:33:10.688Z,30.00
2023-04-15T14:35:38.398Z,30.70
2023-04-15T14:38:06.252Z,32.00
2023-04-15T14:40:34.260Z,31.50
2023-04-15T14:43:01.456Z,31.50
2023-04-15T14:45:30.735Z,31.90
2023-04-15T14:47:57.858Z,31.00
2023-04-15T14:50:25.056Z,31.10
2023-04-15T14:52:52.030Z,32.60
2023-04-15T14:55:19.093Z,32.50
2023-04-15T14:57:46.377Z,32.90
2023-04-15T15:00:16.003Z,33.40
2023-04-15T15:02:43.936Z,32.70
2023-04-15T15:05:12.312Z,32.90
2023-04-15T15:07:41.135Z,32.90
2023-04-15T15:10:09.137Z,32.60
2023-04-15T15:12:36.529Z,33.00
2023-04-15T15:15:12.157Z,32.20
2023-04-15T15:17:43.197Z,33.20
2023-04-15T15:20:10.675Z,33.70
2023-04-15T15:22:37.837Z,33.10
2023-04-15T15:25:05.797Z,33.70
2023-04-15T15:27:33.792Z,33.50
2023-04-15T15:30:00.914Z,34.20
2023-04-15T15:32:28.162Z,34.30
2023-04-15T15:34:56.402Z,34.30
2023-04-15T15:37:23.446Z,34.90
2023-04-15T15:39:51.953Z,34.80
2023-04-15T15:42:22.471Z,35.00
2023-04-15T15:44:50.244Z,33.50
2023-04-15T15:47:17.447Z,33.70
2023-04-15T15:49:44.740Z,33.90
2023-04-15T15:52:12.299Z,33.70
2023-04-15T15:54:41.341Z,33.20
2023-04-15T15:57:08.644Z,32.10
2023-04-15T15:59:36.013Z,31.90
2023-04-15T16:02:03.378Z,31.30
2023-04-15T16:04:30.788Z,31.10
2023-04-15T16:06:58.060Z,31.50
2023-04-15T16:09:25.212Z,33.10
2023-04-15T16:11:53.059Z,34.20
2023-04-15T16:14:21.256Z,35.00
2023-04-15T16:16:48.412Z,36.00
2023-04-15T16:19:15.557Z,36.60
2023-04-15T16:21:43.582Z,36.90
2023-04-15T16:24:11.109Z,37.30
2023-04-15T16:26:38.215Z,36.90
2023-04-15T16:29:05.524Z,36.90
2023-04-15T16:31:32.662Z,36.80
2023-04-15T16:33:59.887Z,37.20
2023-04-15T16:36:27.651Z,37.30
2023-04-15T16:38:54.832Z,37.40
2023-04-15T16:41:21.865Z,37.50
2023-04-15T16:43:48.930Z,37.40
2023-04-15T16:46:16.113Z,37.30
2023-04-15T16:48:43.202Z,37.30
2023-04-15T16:51:12.656Z,37.50
2023-04-15T16:53:39.684Z,37.50
2023-04-15T16:56:07.002Z,37.20
2023-04-15T16:58:34.031Z,37.20
2023-04-15T17:01:01.308Z,36.90
2023-04-15T17:03:28.418Z,36.90
2023-04-15T17:05:55.538Z,36.90
2023-04-15T17:08:23.104Z,36.90
2023-04-15T17:10:52.167Z,36.80
2023-04-15T17:13:19.221Z,36.90
2023-04-15T17:15:46.276Z,36.80
2023-04-15T17:18:13.567Z,36.80
2023-04-15T17:20:41.037Z,36.40
2023-04-15T17:23:09.133Z,36.30
2023-04-15T17:25:36.080Z,36.20
2023-04-15T17:28:03.238Z,36.30
2023-04-15T17:30:30.506Z,35.90
2023-04-15T17:32:57.629Z,36.00
2023-04-15T17:35:26.307Z,36.10
2023-04-15T17:37:53.341Z,36.00
2023-04-15T17:40:23.270Z,36.00
2023-04-15T17:42:51.534Z,36.20
2023-04-15T17:45:20.375Z,36.30
2023-04-15T17:47:48.391Z,36.30
2023-04-15T17:50:16.795Z,36.20
2023-04-15T17:52:44.476Z,36.40
2023-04-15T17:55:11.543Z,36.40
2023-04-15T17:57:38.700Z,36.40
2023-04-15T18:00:07.155Z,36.50
2023-04-15T18:02:36.251Z,36.50
2023-04-15T18:05:04.572Z,36.50
2023-04-15T18:07:31.803Z,36.40
2023-04-15T18:09:59.632Z,36.40
2023-04-15T18:12:27.022Z,36.50
2023-04-15T18:14:54.133Z,36.50
2023-04-15T18:17:21.171Z,36.60
2023-04-15T18:19:50.283Z,36.80
2023-04-15T18:22:18.296Z,36.90
2023-04-15T18:24:45.464Z,36.90
2023-04-15T18:27:14.268Z,36.80
2023-04-15T18:29:41.800Z,36.50
2023-04-15T18:32:09.035Z,36.30
2023-04-15T18:34:36.244Z,36.30
2023-04-15T18:37:03.628Z,36.30
2023-04-15T18:39:31.017Z,36.30
2023-04-15T18:41:58.071Z,36.30
2023-04-15T18:44:25.171Z,36.30
2023-04-15T18:46:52.158Z,36.00
2023-04-15T18:49:19.301Z,36.30
2023-04-15T18:51:46.629Z,36.40
2023-04-15T18:54:13.731Z,36.10
2023-04-15T18:56:40.854Z,36.10
2023-04-15T18:59:28.495Z,35.30
2023-04-15T19:01:58.749Z,35.10
2023-04-15T19:04:26.300Z,34.80
2023-04-15T19:06:53.536Z,34.70
2023-04-15T19:09:20.663Z,35.40
2023-04-15T19:11:47.835Z,36.00
2023-04-15T19:14:15.131Z,36.40
2023-04-15T19:16:42.224Z,36.40
2023-04-15T19:19:09.348Z,36.50
2023-04-15T19:21:36.617Z,35.90
2023-04-15T19:24:03.764Z,35.90
2023-04-15T19:26:31.054Z,36.10
2023-04-15T19:28:59.044Z,36.50
2023-04-15T19:31:27.510Z,36.80
2023-04-15T19:33:54.527Z,36.70
2023-04-15T19:36:21.634Z,36.60
2023-04-15T19:38:48.957Z,36.70
2023-04-15T19:41:16.162Z,36.70
2023-04-15T19:43:44.671Z,36.80
2023-04-15T19:46:13.340Z,36.70
2023-04-15T19:48:40.648Z,36.70
2023-04-15T19:51:07.901Z,36.70
2023-04-15T19:53:35.051Z,36.70
2023-04-15T19:56:02.341Z,36.80
2023-04-15T19:58:29.676Z,36.60
2023-04-15T20:00:59.514Z,36.70
2023-04-15T20:03:26.649Z,36.70
2023-04-15T20:05:53.797Z,36.70
2023-04-15T20:08:20.883Z,36.70
2023-04-15T20:10:47.856Z,36.60
2023-04-15T20:13:17.247Z,36.60
2023-04-15T20:15:44.971Z,36.60
2023-04-15T20:18:12.099Z,36.80
2023-04-15T20:20:40.652Z,36.70
2023-04-15T20:23:07.876Z,36.90
2023-04-15T20:25:35.056Z,37.00
2023-04-15T20:28:02.556Z,37.10
2023-04-15T20:30:29.745Z,37.20
2023-04-15T20:32:59.132Z,37.10
2023-04-15T20:35:28.412Z,37.10
2023-04-15T20:37:55.539Z,37.00
2023-04-15T20:40:23.116Z,36.90
2023-04-15T20:42:50.218Z,36.70
2023-04-15T20:45:17.832Z,36.60
2023-04-15T20:47:44.893Z,36.30
2023-04-15T20:50:12.349Z,36.40
2023-04-15T20:52:39.898Z,36.40
2023-04-15T20:55:07.615Z,36.30
2023-04-15T20:57:34.771Z,36.60
2023-04-15T21:00:01.849Z,36.80
2023-04-15T21:02:29.329Z,36.50
2023-04-15T21:04:56.723Z,36.70
2023-04-15T21:07:24.830Z,36.70
2023-04-15T21:09:55.333Z,36.70
2023-04-15T21:12:22.458Z,36.80
2023-04-15T21:14:51.321Z,36.30
2023-04-15T21:17:18.511Z,36.20
2023-04-15T21:19:46.149Z,35.90
2023-04-15T21:22:13.593Z,36.20
2023-04-15T21:24:40.647Z,36.40
2023-04-15T21:27:07.744Z,36.20
2023-04-15T21:29:34.855Z,36.10
2023-04-15T21:32:01.971Z,35.70
2023-04-15T21:34:29.208Z,36.00
2023-04-15T21:36:56.280Z,36.20
2023-04-15T21:39:23.540Z,36.10
2023-04-15T21:41:52.752Z,36.30
2023-04-15T21:44:19.911Z,35.40
2023-04-15T21:46:47.046Z,35.60
2023-04-15T21:49:14.329Z,35.80
2023-04-15T21:51:41.778Z,36.10
2023-04-15T21:54:08.899Z,36.10
2023-04-15T21:56:36.907Z,34.90
2023-04-15T21:59:04.080Z,35.10
2023-04-15T22:01:31.229Z,35.50
2023-04-15T22:03:58.349Z,35.20
2023-04-15T22:06:25.499Z,35.00
2023-04-15T22:09:09.246Z,35.50
2023-04-15T22:11:37.781Z,35.00
2023-04-15T22:14:05.813Z,34.60
2023-04-15T22:16:32.898Z,34.80
2023-04-15T22:19:00.617Z,35.00
2023-04-15T22:21:28.035Z,34.90
2023-04-15T22:24:31.707Z,35.10
2023-04-15T22:26:43.636Z,35.20
2023-04-15T22:29:10.856Z,35.80
2023-04-15T22:31:38.009Z,36.10
2023-04-15T22:34:05.160Z,35.80
2023-04-15T22:36:32.448Z,36.00
2023-04-15T22:38:59.450Z,36.00
2023-04-15T22:41:26.561Z,36.20
2023-04-15T22:43:53.628Z,36.30
2023-04-15T22:46:20.972Z,36.40
2023-04-15T22:48:50.329Z,36.10
2023-04-15T22:51:22.621Z,36.20
2023-04-15T22:53:50.611Z,36.30
2023-04-15T22:56:21.669Z,36.40
2023-04-15T22:58:49.229Z,36.30
2023-04-15T23:01:18.035Z,36.20
2023-04-15T23:03:55.616Z,36.10
2023-04-15T23:06:24.816Z,36.00
2023-04-15T23:08:52.410Z,35.90
2023-04-15T23:11:19.386Z,35.90
2023-04-15T23:13:46.484Z,35.90
2023-04-15T23:16:13.459Z,35.20
2023-04-15T23:18:40.570Z,35.50
2023-04-15T23:21:07.696Z,35.60
2023-04-15T23:23:34.809Z,35.80
2023-04-15T23:26:03.969Z,36.00
2023-04-15T23:28:31.357Z,36.00
2023-04-15T23:31:00.427Z,36.00
2023-04-15T23:33:27.882Z,36.00
2023-04-15T23:35:55.159Z,35.80
2023-04-15T23:38:22.296Z,36.00
2023-04-15T23:40:50.418Z,36.00
2023-04-15T23:43:17.498Z,35.70
2023-04-15T23:45:44.473Z,35.90
2023-04-15T23:48:11.471Z,35.90
2023-04-15T23:50:39.911Z,35.80
2023-04-15T23:53:06.946Z,35.80
2023-04-15T23:55:33.931Z,35.90
2023-04-15T23:58:01.106Z,35.90
